sensor_id;sensor_type;location;lat;lon;timestamp;P1;durP1;ratioP1;P2;durP2;ratioP2
70667;SDS011;58242;51.250;-1.118;2023-02-03T00:00:05;3.97;;;3.53;;
70667;SDS011;58242;51.250;-1.118;2023-02-03T00:02:31;3.80;;;3.60;;
70667;SDS011;58242;51.250;-1.118;2023-02-03T00:04:57;4.20;;;3.90;;
70667;SDS011;58242;51.250;-1.118;2023-02-03T00:07:22;3.60;;;3.40;;
70667;SDS011;58242;51.250;-1.118;2023-02-03T00:09:47;3.30;;;3.20;;
70667;SDS011;58242;51.250;-1.118;2023-02-03T00:12:13;3.65;;;3.50;;
70667;SDS011;58242;51.250;-1.118;2023-02-03T00:14:38;4.22;;;3.95;;
70667;SDS011;58242;51.250;-1.118;2023-02-03T00:17:04;4.20;;;3.90;;
70667;SDS011;58242;51.250;-1.118;2023-02-03T00:19:30;3.95;;;3.75;;
70667;SDS011;58242;51.250;-1.118;2023-02-03T00:21:55;4.05;;;3.63;;
70667;SDS011;58242;51.250;-1.118;2023-02-03T00:24:20;4.25;;;3.95;;
70667;SDS011;58242;51.250;-1.118;2023-02-03T00:26:47;4.13;;;3.90;;
70667;SDS011;58242;51.250;-1.118;2023-02-03T00:29:13;3.75;;;3.55;;
70667;SDS011;58242;51.250;-1.118;2023-02-03T00:31:39;3.58;;;3.33;;
70667;SDS011;58242;51.250;-1.118;2023-02-03T00:34:04;4.05;;;3.78;;
70667;SDS011;58242;51.250;-1.118;2023-02-03T00:36:30;4.43;;;4.07;;
70667;SDS011;58242;51.250;-1.118;2023-02-03T00:38:55;4.10;;;3.90;;
70667;SDS011;58242;51.250;-1.118;2023-02-03T00:41:21;4.20;;;4.00;;
70667;SDS011;58242;51.250;-1.118;2023-02-03T00:43:46;4.13;;;3.88;;
70667;SDS011;58242;51.250;-1.118;2023-02-03T00:46:12;3.97;;;3.78;;
70667;SDS011;58242;51.250;-1.118;2023-02-03T00:48:38;3.70;;;3.50;;
70667;SDS011;58242;51.250;-1.118;2023-02-03T00:51:04;4.30;;;4.10;;
70667;SDS011;58242;51.250;-1.118;2023-02-03T00:53:29;4.45;;;4.15;;
70667;SDS011;58242;51.250;-1.118;2023-02-03T00:55:54;3.90;;;3.80;;
70667;SDS011;58242;51.250;-1.118;2023-02-03T00:58:20;4.40;;;4.00;;
70667;SDS011;58242;51.250;-1.118;2023-02-03T01:00:45;4.97;;;4.60;;
70667;SDS011;58242;51.250;-1.118;2023-02-03T01:03:10;4.50;;;4.20;;
70667;SDS011;58242;51.250;-1.118;2023-02-03T01:05:36;4.40;;;4.20;;
70667;SDS011;58242;51.250;-1.118;2023-02-03T01:08:02;4.40;;;4.20;;
70667;SDS011;58242;51.250;-1.118;2023-02-03T01:10:28;4.57;;;4.28;;
70667;SDS011;58242;51.250;-1.118;2023-02-03T01:12:54;4.32;;;3.97;;
70667;SDS011;58242;51.250;-1.118;2023-02-03T01:15:19;4.10;;;3.90;;
70667;SDS011;58242;51.250;-1.118;2023-02-03T01:17:44;4.65;;;4.35;;
70667;SDS011;58242;51.250;-1.118;2023-02-03T01:20:10;5.13;;;4.25;;
70667;SDS011;58242;51.250;-1.118;2023-02-03T01:22:40;4.65;;;3.80;;
70667;SDS011;58242;51.250;-1.118;2023-02-03T01:25:06;4.93;;;4.63;;
70667;SDS011;58242;51.250;-1.118;2023-02-03T01:27:32;4.30;;;4.10;;
70667;SDS011;58242;51.250;-1.118;2023-02-03T01:29:58;4.32;;;4.13;;
70667;SDS011;58242;51.250;-1.118;2023-02-03T01:32:23;4.88;;;4.53;;
70667;SDS011;58242;51.250;-1.118;2023-02-03T01:34:49;4.45;;;4.05;;
70667;SDS011;58242;51.250;-1.118;2023-02-03T01:37:14;4.43;;;3.95;;
70667;SDS011;58242;51.250;-1.118;2023-02-03T01:39:42;4.22;;;4.00;;
70667;SDS011;58242;51.250;-1.118;2023-02-03T01:42:08;4.10;;;3.90;;
70667;SDS011;58242;51.250;-1.118;2023-02-03T01:44:44;4.63;;;4.20;;
70667;SDS011;58242;51.250;-1.118;2023-02-03T01:47:15;4.85;;;4.45;;
70667;SDS011;58242;51.250;-1.118;2023-02-03T01:49:47;4.78;;;4.47;;
70667;SDS011;58242;51.250;-1.118;2023-02-03T01:52:17;4.30;;;4.00;;
70667;SDS011;58242;51.250;-1.118;2023-02-03T01:54:43;5.25;;;4.60;;
70667;SDS011;58242;51.250;-1.118;2023-02-03T01:57:28;4.95;;;4.40;;
70667;SDS011;58242;51.250;-1.118;2023-02-03T01:59:58;4.43;;;4.22;;
70667;SDS011;58242;51.250;-1.118;2023-02-03T02:02:24;4.97;;;4.35;;
70667;SDS011;58242;51.250;-1.118;2023-02-03T02:05:53;4.15;;;3.90;;
70667;SDS011;58242;51.250;-1.118;2023-02-03T02:07:55;4.72;;;4.43;;
70667;SDS011;58242;51.250;-1.118;2023-02-03T02:10:22;4.60;;;4.30;;
70667;SDS011;58242;51.250;-1.118;2023-02-03T02:12:48;4.50;;;4.28;;
70667;SDS011;58242;51.250;-1.118;2023-02-03T02:15:13;4.43;;;3.88;;
70667;SDS011;58242;51.250;-1.118;2023-02-03T02:20:37;4.47;;;4.28;;
70667;SDS011;58242;51.250;-1.118;2023-02-03T02:23:23;4.43;;;4.13;;
70667;SDS011;58242;51.250;-1.118;2023-02-03T02:36:41;4.63;;;4.22;;
70667;SDS011;58242;51.250;-1.118;2023-02-03T02:39:15;4.57;;;4.28;;
70667;SDS011;58242;51.250;-1.118;2023-02-03T02:42:22;4.80;;;4.38;;
70667;SDS011;58242;51.250;-1.118;2023-02-03T02:44:50;6.25;;;4.05;;
70667;SDS011;58242;51.250;-1.118;2023-02-03T02:47:20;4.38;;;4.07;;
70667;SDS011;58242;51.250;-1.118;2023-02-03T02:49:56;5.13;;;4.53;;
70667;SDS011;58242;51.250;-1.118;2023-02-03T02:52:25;4.50;;;4.10;;
70667;SDS011;58242;51.250;-1.118;2023-02-03T02:54:54;4.45;;;4.05;;
70667;SDS011;58242;51.250;-1.118;2023-02-03T02:57:22;3.90;;;3.70;;
70667;SDS011;58242;51.250;-1.118;2023-02-03T02:59:50;4.70;;;4.30;;
70667;SDS011;58242;51.250;-1.118;2023-02-03T03:02:15;4.35;;;4.05;;
70667;SDS011;58242;51.250;-1.118;2023-02-03T03:04:41;4.88;;;4.47;;
70667;SDS011;58242;51.250;-1.118;2023-02-03T03:07:11;4.32;;;4.05;;
70667;SDS011;58242;51.250;-1.118;2023-02-03T03:09:43;4.18;;;3.97;;
70667;SDS011;58242;51.250;-1.118;2023-02-03T03:14:45;5.53;;;4.20;;
70667;SDS011;58242;51.250;-1.118;2023-02-03T03:17:20;5.03;;;4.30;;
70667;SDS011;58242;51.250;-1.118;2023-02-03T03:19:51;5.47;;;5.00;;
70667;SDS011;58242;51.250;-1.118;2023-02-03T03:22:20;5.00;;;4.38;;
70667;SDS011;58242;51.250;-1.118;2023-02-03T03:24:52;5.30;;;4.65;;
70667;SDS011;58242;51.250;-1.118;2023-02-03T03:27:23;4.68;;;4.30;;
70667;SDS011;58242;51.250;-1.118;2023-02-03T03:29:54;4.65;;;4.25;;
70667;SDS011;58242;51.250;-1.118;2023-02-03T03:32:23;4.45;;;4.15;;
70667;SDS011;58242;51.250;-1.118;2023-02-03T03:34:49;4.28;;;3.90;;
70667;SDS011;58242;51.250;-1.118;2023-02-03T03:37:21;4.80;;;4.60;;
70667;SDS011;58242;51.250;-1.118;2023-02-03T03:39:54;4.32;;;4.10;;
70667;SDS011;58242;51.250;-1.118;2023-02-03T03:45:46;5.30;;;5.00;;
70667;SDS011;58242;51.250;-1.118;2023-02-03T03:51:26;4.93;;;4.55;;
70667;SDS011;58242;51.250;-1.118;2023-02-03T03:53:55;4.47;;;4.25;;
70667;SDS011;58242;51.250;-1.118;2023-02-03T03:56:28;4.28;;;4.00;;
70667;SDS011;58242;51.250;-1.118;2023-02-03T03:58:58;4.55;;;4.32;;
70667;SDS011;58242;51.250;-1.118;2023-02-03T04:01:25;4.18;;;3.97;;
70667;SDS011;58242;51.250;-1.118;2023-02-03T04:03:53;4.28;;;4.05;;
70667;SDS011;58242;51.250;-1.118;2023-02-03T04:06:22;4.72;;;4.40;;
70667;SDS011;58242;51.250;-1.118;2023-02-03T04:08:47;4.47;;;4.20;;
70667;SDS011;58242;51.250;-1.118;2023-02-03T04:11:13;4.30;;;4.10;;
70667;SDS011;58242;51.250;-1.118;2023-02-03T04:13:58;4.35;;;4.07;;
70667;SDS011;58242;51.250;-1.118;2023-02-03T04:16:23;4.00;;;3.80;;
70667;SDS011;58242;51.250;-1.118;2023-02-03T04:18:49;3.80;;;3.60;;
70667;SDS011;58242;51.250;-1.118;2023-02-03T04:21:14;4.53;;;4.05;;
70667;SDS011;58242;51.250;-1.118;2023-02-03T04:23:39;3.90;;;3.75;;
70667;SDS011;58242;51.250;-1.118;2023-02-03T04:26:04;4.20;;;4.00;;
70667;SDS011;58242;51.250;-1.118;2023-02-03T04:28:30;4.55;;;4.20;;
70667;SDS011;58242;51.250;-1.118;2023-02-03T04:30:58;4.10;;;3.90;;
70667;SDS011;58242;51.250;-1.118;2023-02-03T04:35:50;4.68;;;4.22;;
70667;SDS011;58242;51.250;-1.118;2023-02-03T04:38:15;4.40;;;4.15;;
70667;SDS011;58242;51.250;-1.118;2023-02-03T04:40:40;4.53;;;4.13;;
70667;SDS011;58242;51.250;-1.118;2023-02-03T04:43:06;4.15;;;3.90;;
70667;SDS011;58242;51.250;-1.118;2023-02-03T04:45:32;4.40;;;4.00;;
70667;SDS011;58242;51.250;-1.118;2023-02-03T04:47:57;4.90;;;4.28;;
70667;SDS011;58242;51.250;-1.118;2023-02-03T04:50:23;3.97;;;3.83;;
70667;SDS011;58242;51.250;-1.118;2023-02-03T04:52:48;4.05;;;3.85;;
70667;SDS011;58242;51.250;-1.118;2023-02-03T04:55:13;4.28;;;4.00;;
70667;SDS011;58242;51.250;-1.118;2023-02-03T04:57:39;4.22;;;4.00;;
70667;SDS011;58242;51.250;-1.118;2023-02-03T05:00:04;4.40;;;4.20;;
70667;SDS011;58242;51.250;-1.118;2023-02-03T05:02:30;3.70;;;3.50;;
70667;SDS011;58242;51.250;-1.118;2023-02-03T05:04:55;4.25;;;3.90;;
70667;SDS011;58242;51.250;-1.118;2023-02-03T05:07:20;4.40;;;4.20;;
70667;SDS011;58242;51.250;-1.118;2023-02-03T05:09:46;4.10;;;4.00;;
70667;SDS011;58242;51.250;-1.118;2023-02-03T05:12:11;3.90;;;3.75;;
70667;SDS011;58242;51.250;-1.118;2023-02-03T05:14:36;4.45;;;4.18;;
70667;SDS011;58242;51.250;-1.118;2023-02-03T05:17:02;4.38;;;4.03;;
70667;SDS011;58242;51.250;-1.118;2023-02-03T05:19:27;4.10;;;4.00;;
70667;SDS011;58242;51.250;-1.118;2023-02-03T05:21:52;4.43;;;4.10;;
70667;SDS011;58242;51.250;-1.118;2023-02-03T05:24:18;4.30;;;4.10;;
70667;SDS011;58242;51.250;-1.118;2023-02-03T05:26:43;4.80;;;4.10;;
70667;SDS011;58242;51.250;-1.118;2023-02-03T05:29:08;4.10;;;3.97;;
70667;SDS011;58242;51.250;-1.118;2023-02-03T05:31:35;3.40;;;3.20;;
70667;SDS011;58242;51.250;-1.118;2023-02-03T05:34:01;4.07;;;3.78;;
70667;SDS011;58242;51.250;-1.118;2023-02-03T05:36:26;3.88;;;3.67;;
70667;SDS011;58242;51.250;-1.118;2023-02-03T05:38:51;3.70;;;3.60;;
70667;SDS011;58242;51.250;-1.118;2023-02-03T05:41:17;4.03;;;3.80;;
70667;SDS011;58242;51.250;-1.118;2023-02-03T05:44:00;4.05;;;3.85;;
70667;SDS011;58242;51.250;-1.118;2023-02-03T05:46:26;3.22;;;3.00;;
70667;SDS011;58242;51.250;-1.118;2023-02-03T05:48:51;3.78;;;3.60;;
70667;SDS011;58242;51.250;-1.118;2023-02-03T05:51:16;4.15;;;3.83;;
70667;SDS011;58242;51.250;-1.118;2023-02-03T05:53:42;3.72;;;3.60;;
70667;SDS011;58242;51.250;-1.118;2023-02-03T05:56:07;3.60;;;3.40;;
70667;SDS011;58242;51.250;-1.118;2023-02-03T05:58:32;3.55;;;3.35;;
70667;SDS011;58242;51.250;-1.118;2023-02-03T06:00:58;3.97;;;3.75;;
70667;SDS011;58242;51.250;-1.118;2023-02-03T06:03:23;4.10;;;3.90;;
70667;SDS011;58242;51.250;-1.118;2023-02-03T06:05:48;4.05;;;3.85;;
70667;SDS011;58242;51.250;-1.118;2023-02-03T06:08:14;4.10;;;3.90;;
70667;SDS011;58242;51.250;-1.118;2023-02-03T06:10:39;4.38;;;4.05;;
70667;SDS011;58242;51.250;-1.118;2023-02-03T06:13:11;3.63;;;3.53;;
70667;SDS011;58242;51.250;-1.118;2023-02-03T06:15:39;4.13;;;3.88;;
70667;SDS011;58242;51.250;-1.118;2023-02-03T06:18:04;3.65;;;3.35;;
70667;SDS011;58242;51.250;-1.118;2023-02-03T06:20:30;4.00;;;3.80;;
70667;SDS011;58242;51.250;-1.118;2023-02-03T06:22:55;3.58;;;3.38;;
70667;SDS011;58242;51.250;-1.118;2023-02-03T06:25:20;3.88;;;3.47;;
70667;SDS011;58242;51.250;-1.118;2023-02-03T06:27:47;3.60;;;3.30;;
70667;SDS011;58242;51.250;-1.118;2023-02-03T06:30:12;4.30;;;4.10;;
70667;SDS011;58242;51.250;-1.118;2023-02-03T06:32:37;4.70;;;4.30;;
70667;SDS011;58242;51.250;-1.118;2023-02-03T06:35:03;4.78;;;4.38;;
70667;SDS011;58242;51.250;-1.118;2023-02-03T06:37:28;4.20;;;4.00;;
70667;SDS011;58242;51.250;-1.118;2023-02-03T06:39:54;4.18;;;3.85;;
70667;SDS011;58242;51.250;-1.118;2023-02-03T06:42:19;4.85;;;4.00;;
70667;SDS011;58242;51.250;-1.118;2023-02-03T06:44:44;4.10;;;3.90;;
70667;SDS011;58242;51.250;-1.118;2023-02-03T06:47:10;4.47;;;4.28;;
70667;SDS011;58242;51.250;-1.118;2023-02-03T06:49:35;4.63;;;4.22;;
70667;SDS011;58242;51.250;-1.118;2023-02-03T06:52:00;4.80;;;4.50;;
70667;SDS011;58242;51.250;-1.118;2023-02-03T06:54:25;4.70;;;4.35;;
70667;SDS011;58242;51.250;-1.118;2023-02-03T06:56:51;4.20;;;4.00;;
70667;SDS011;58242;51.250;-1.118;2023-02-03T06:59:17;4.10;;;4.00;;
70667;SDS011;58242;51.250;-1.118;2023-02-03T07:01:42;4.50;;;4.30;;
70667;SDS011;58242;51.250;-1.118;2023-02-03T07:04:08;4.07;;;3.80;;
70667;SDS011;58242;51.250;-1.118;2023-02-03T07:06:34;4.05;;;3.78;;
70667;SDS011;58242;51.250;-1.118;2023-02-03T07:09:00;4.25;;;3.95;;
70667;SDS011;58242;51.250;-1.118;2023-02-03T07:11:26;3.83;;;3.63;;
70667;SDS011;58242;51.250;-1.118;2023-02-03T07:13:51;4.50;;;4.20;;
70667;SDS011;58242;51.250;-1.118;2023-02-03T07:16:17;4.18;;;3.83;;
70667;SDS011;58242;51.250;-1.118;2023-02-03T07:18:42;4.40;;;4.00;;
70667;SDS011;58242;51.250;-1.118;2023-02-03T07:21:08;4.70;;;4.40;;
70667;SDS011;58242;51.250;-1.118;2023-02-03T07:23:34;5.63;;;3.83;;
70667;SDS011;58242;51.250;-1.118;2023-02-03T07:26:00;4.20;;;3.90;;
70667;SDS011;58242;51.250;-1.118;2023-02-03T07:28:28;4.20;;;3.90;;
70667;SDS011;58242;51.250;-1.118;2023-02-03T07:30:54;4.95;;;4.50;;
70667;SDS011;58242;51.250;-1.118;2023-02-03T07:33:19;4.32;;;4.03;;
70667;SDS011;58242;51.250;-1.118;2023-02-03T07:35:54;4.80;;;4.60;;
70667;SDS011;58242;51.250;-1.118;2023-02-03T07:38:21;4.78;;;4.45;;
70667;SDS011;58242;51.250;-1.118;2023-02-03T07:40:48;4.30;;;4.00;;
70667;SDS011;58242;51.250;-1.118;2023-02-03T07:43:13;4.13;;;3.92;;
70667;SDS011;58242;51.250;-1.118;2023-02-03T07:45:38;4.53;;;3.90;;
70667;SDS011;58242;51.250;-1.118;2023-02-03T07:48:04;4.30;;;4.10;;
70667;SDS011;58242;51.250;-1.118;2023-02-03T07:50:29;3.90;;;3.70;;
70667;SDS011;58242;51.250;-1.118;2023-02-03T07:52:57;4.30;;;4.10;;
70667;SDS011;58242;51.250;-1.118;2023-02-03T07:55:22;4.63;;;4.32;;
70667;SDS011;58242;51.250;-1.118;2023-02-03T07:57:47;3.90;;;3.70;;
70667;SDS011;58242;51.250;-1.118;2023-02-03T08:00:14;4.90;;;4.50;;
70667;SDS011;58242;51.250;-1.118;2023-02-03T08:02:41;4.50;;;4.20;;
70667;SDS011;58242;51.250;-1.118;2023-02-03T08:05:07;4.50;;;3.97;;
70667;SDS011;58242;51.250;-1.118;2023-02-03T08:07:33;4.00;;;3.67;;
70667;SDS011;58242;51.250;-1.118;2023-02-03T08:09:58;3.83;;;3.58;;
70667;SDS011;58242;51.250;-1.118;2023-02-03T08:12:24;6.10;;;4.70;;
70667;SDS011;58242;51.250;-1.118;2023-02-03T08:14:49;3.97;;;3.67;;
70667;SDS011;58242;51.250;-1.118;2023-02-03T08:17:14;4.18;;;3.58;;
70667;SDS011;58242;51.250;-1.118;2023-02-03T08:19:40;4.50;;;4.13;;
70667;SDS011;58242;51.250;-1.118;2023-02-03T08:22:05;3.80;;;3.50;;
70667;SDS011;58242;51.250;-1.118;2023-02-03T08:24:30;4.47;;;4.03;;
70667;SDS011;58242;51.250;-1.118;2023-02-03T08:26:55;3.80;;;3.50;;
70667;SDS011;58242;51.250;-1.118;2023-02-03T08:29:21;5.82;;;3.22;;
70667;SDS011;58242;51.250;-1.118;2023-02-03T08:31:46;4.00;;;3.70;;
70667;SDS011;58242;51.250;-1.118;2023-02-03T08:34:11;3.90;;;3.60;;
70667;SDS011;58242;51.250;-1.118;2023-02-03T08:36:37;5.10;;;4.20;;
70667;SDS011;58242;51.250;-1.118;2023-02-03T08:39:04;4.80;;;3.70;;
70667;SDS011;58242;51.250;-1.118;2023-02-03T08:41:30;4.03;;;3.70;;
70667;SDS011;58242;51.250;-1.118;2023-02-03T08:43:57;5.75;;;3.55;;
70667;SDS011;58242;51.250;-1.118;2023-02-03T08:46:23;3.45;;;3.15;;
70667;SDS011;58242;51.250;-1.118;2023-02-03T08:48:48;4.35;;;3.05;;
70667;SDS011;58242;51.250;-1.118;2023-02-03T08:51:14;4.07;;;3.30;;
70667;SDS011;58242;51.250;-1.118;2023-02-03T08:53:41;5.80;;;3.55;;
70667;SDS011;58242;51.250;-1.118;2023-02-03T08:56:07;4.05;;;3.13;;
70667;SDS011;58242;51.250;-1.118;2023-02-03T08:58:33;6.32;;;2.90;;
70667;SDS011;58242;51.250;-1.118;2023-02-03T09:01:05;4.07;;;3.08;;
70667;SDS011;58242;51.250;-1.118;2023-02-03T09:03:32;3.80;;;3.50;;
70667;SDS011;58242;51.250;-1.118;2023-02-03T09:05:58;4.40;;;3.40;;
70667;SDS011;58242;51.250;-1.118;2023-02-03T09:08:24;5.22;;;3.30;;
70667;SDS011;58242;51.250;-1.118;2023-02-03T09:10:49;5.35;;;3.78;;
70667;SDS011;58242;51.250;-1.118;2023-02-03T09:13:14;4.78;;;3.63;;
70667;SDS011;58242;51.250;-1.118;2023-02-03T09:15:40;7.95;;;3.42;;
70667;SDS011;58242;51.250;-1.118;2023-02-03T09:18:05;4.18;;;3.78;;
70667;SDS011;58242;51.250;-1.118;2023-02-03T09:20:30;4.70;;;3.78;;
70667;SDS011;58242;51.250;-1.118;2023-02-03T09:22:57;5.32;;;3.30;;
70667;SDS011;58242;51.250;-1.118;2023-02-03T09:25:23;4.20;;;3.25;;
70667;SDS011;58242;51.250;-1.118;2023-02-03T09:27:49;4.80;;;3.88;;
70667;SDS011;58242;51.250;-1.118;2023-02-03T09:30:14;3.10;;;2.80;;
70667;SDS011;58242;51.250;-1.118;2023-02-03T09:32:40;3.13;;;3.00;;
70667;SDS011;58242;51.250;-1.118;2023-02-03T09:35:05;4.65;;;3.08;;
70667;SDS011;58242;51.250;-1.118;2023-02-03T09:37:30;3.17;;;2.92;;
70667;SDS011;58242;51.250;-1.118;2023-02-03T09:39:56;4.07;;;3.20;;
70667;SDS011;58242;51.250;-1.118;2023-02-03T09:42:35;5.50;;;3.30;;
70667;SDS011;58242;51.250;-1.118;2023-02-03T09:45:25;3.50;;;3.20;;
70667;SDS011;58242;51.250;-1.118;2023-02-03T09:47:52;5.30;;;3.60;;
70667;SDS011;58242;51.250;-1.118;2023-02-03T09:50:21;5.25;;;3.38;;
70667;SDS011;58242;51.250;-1.118;2023-02-03T09:52:50;4.30;;;3.15;;
70667;SDS011;58242;51.250;-1.118;2023-02-03T09:55:23;4.00;;;3.15;;
70667;SDS011;58242;51.250;-1.118;2023-02-03T09:57:57;6.35;;;3.50;;
70667;SDS011;58242;51.250;-1.118;2023-02-03T10:03:06;4.30;;;3.22;;
70667;SDS011;58242;51.250;-1.118;2023-02-03T10:06:00;5.30;;;3.25;;
70667;SDS011;58242;51.250;-1.118;2023-02-03T10:14:31;4.70;;;2.85;;
70667;SDS011;58242;51.250;-1.118;2023-02-03T10:22:47;4.10;;;3.20;;
70667;SDS011;58242;51.250;-1.118;2023-02-03T10:27:54;4.80;;;3.67;;
70667;SDS011;58242;51.250;-1.118;2023-02-03T10:30:28;4.07;;;3.17;;
70667;SDS011;58242;51.250;-1.118;2023-02-03T10:33:08;6.88;;;3.88;;
70667;SDS011;58242;51.250;-1.118;2023-02-03T10:38:15;4.50;;;3.67;;
70667;SDS011;58242;51.250;-1.118;2023-02-03T10:40:48;4.40;;;3.97;;
70667;SDS011;58242;51.250;-1.118;2023-02-03T10:43:14;6.22;;;4.63;;
70667;SDS011;58242;51.250;-1.118;2023-02-03T10:45:58;4.60;;;4.20;;
70667;SDS011;58242;51.250;-1.118;2023-02-03T10:48:24;4.38;;;3.70;;
70667;SDS011;58242;51.250;-1.118;2023-02-03T10:50:49;4.47;;;4.18;;
70667;SDS011;58242;51.250;-1.118;2023-02-03T10:53:31;6.57;;;4.47;;
70667;SDS011;58242;51.250;-1.118;2023-02-03T10:56:19;4.18;;;3.88;;
70667;SDS011;58242;51.250;-1.118;2023-02-03T10:58:56;3.38;;;3.17;;
70667;SDS011;58242;51.250;-1.118;2023-02-03T11:01:27;4.05;;;3.85;;
70667;SDS011;58242;51.250;-1.118;2023-02-03T11:04:08;4.35;;;3.97;;
70667;SDS011;58242;51.250;-1.118;2023-02-03T11:07:05;3.30;;;2.83;;
70667;SDS011;58242;51.250;-1.118;2023-02-03T11:12:16;5.03;;;4.35;;
70667;SDS011;58242;51.250;-1.118;2023-02-03T11:14:44;4.47;;;4.22;;
70667;SDS011;58242;51.250;-1.118;2023-02-03T11:17:21;4.20;;;3.90;;
70667;SDS011;58242;51.250;-1.118;2023-02-03T11:19:50;4.28;;;3.88;;
70667;SDS011;58242;51.250;-1.118;2023-02-03T11:25:02;3.60;;;3.30;;
70667;SDS011;58242;51.250;-1.118;2023-02-03T11:27:39;5.53;;;4.90;;
70667;SDS011;58242;51.250;-1.118;2023-02-03T11:30:07;5.30;;;3.80;;
70667;SDS011;58242;51.250;-1.118;2023-02-03T11:32:39;5.45;;;3.90;;
70667;SDS011;58242;51.250;-1.118;2023-02-03T11:37:43;5.25;;;3.83;;
70667;SDS011;58242;51.250;-1.118;2023-02-03T11:42:39;4.25;;;3.28;;
70667;SDS011;58242;51.250;-1.118;2023-02-03T11:47:54;4.07;;;3.67;;
70667;SDS011;58242;51.250;-1.118;2023-02-03T11:50:46;3.45;;;3.25;;
70667;SDS011;58242;51.250;-1.118;2023-02-03T11:59:02;4.65;;;3.55;;
70667;SDS011;58242;51.250;-1.118;2023-02-03T12:23:53;2.42;;;2.22;;
70667;SDS011;58242;51.250;-1.118;2023-02-03T12:26:51;4.43;;;3.20;;
70667;SDS011;58242;51.250;-1.118;2023-02-03T12:29:40;3.13;;;2.75;;
70667;SDS011;58242;51.250;-1.118;2023-02-03T12:40:15;2.67;;;2.47;;
70667;SDS011;58242;51.250;-1.118;2023-02-03T12:42:49;3.47;;;3.28;;
70667;SDS011;58242;51.250;-1.118;2023-02-03T12:45:53;3.22;;;2.97;;
70667;SDS011;58242;51.250;-1.118;2023-02-03T12:48:39;3.00;;;2.83;;
70667;SDS011;58242;51.250;-1.118;2023-02-03T12:51:13;22.67;;;13.35;;
70667;SDS011;58242;51.250;-1.118;2023-02-03T12:53:49;7.47;;;5.35;;
70667;SDS011;58242;51.250;-1.118;2023-02-03T12:56:24;4.60;;;3.97;;
70667;SDS011;58242;51.250;-1.118;2023-02-03T13:01:36;2.92;;;2.80;;
70667;SDS011;58242;51.250;-1.118;2023-02-03T13:12:26;6.78;;;4.88;;
70667;SDS011;58242;51.250;-1.118;2023-02-03T13:14:56;3.33;;;3.13;;
70667;SDS011;58242;51.250;-1.118;2023-02-03T13:20:22;4.35;;;3.22;;
70667;SDS011;58242;51.250;-1.118;2023-02-03T13:22:52;5.95;;;4.40;;
70667;SDS011;58242;51.250;-1.118;2023-02-03T13:25:42;5.70;;;4.55;;
70667;SDS011;58242;51.250;-1.118;2023-02-03T13:39:19;5.10;;;4.60;;
70667;SDS011;58242;51.250;-1.118;2023-02-03T13:44:36;5.53;;;4.95;;
70667;SDS011;58242;51.250;-1.118;2023-02-03T13:47:03;5.18;;;4.68;;
70667;SDS011;58242;51.250;-1.118;2023-02-03T13:49:30;4.55;;;4.22;;
70667;SDS011;58242;51.250;-1.118;2023-02-03T13:54:31;5.63;;;4.60;;
70667;SDS011;58242;51.250;-1.118;2023-02-03T13:56:59;4.50;;;3.95;;
70667;SDS011;58242;51.250;-1.118;2023-02-03T13:59:38;4.50;;;4.07;;
70667;SDS011;58242;51.250;-1.118;2023-02-03T14:02:28;4.35;;;3.90;;
70667;SDS011;58242;51.250;-1.118;2023-02-03T14:05:06;6.55;;;4.05;;
70667;SDS011;58242;51.250;-1.118;2023-02-03T14:07:52;3.85;;;3.55;;
70667;SDS011;58242;51.250;-1.118;2023-02-03T14:10:21;4.47;;;3.80;;
70667;SDS011;58242;51.250;-1.118;2023-02-03T14:15:17;4.95;;;4.40;;
70667;SDS011;58242;51.250;-1.118;2023-02-03T14:22:50;10.07;;;6.60;;
70667;SDS011;58242;51.250;-1.118;2023-02-03T14:25:17;15.02;;;7.78;;
70667;SDS011;58242;51.250;-1.118;2023-02-03T14:27:44;15.52;;;9.60;;
70667;SDS011;58242;51.250;-1.118;2023-02-03T14:30:10;10.55;;;7.03;;
70667;SDS011;58242;51.250;-1.118;2023-02-03T14:35:22;19.75;;;9.48;;
70667;SDS011;58242;51.250;-1.118;2023-02-03T14:37:57;20.13;;;9.80;;
70667;SDS011;58242;51.250;-1.118;2023-02-03T14:49:24;30.13;;;11.82;;
70667;SDS011;58242;51.250;-1.118;2023-02-03T14:57:31;15.48;;;8.57;;
70667;SDS011;58242;51.250;-1.118;2023-02-03T15:08:02;13.57;;;9.35;;
70667;SDS011;58242;51.250;-1.118;2023-02-03T15:10:48;12.15;;;10.75;;
70667;SDS011;58242;51.250;-1.118;2023-02-03T15:13:23;9.52;;;8.35;;
70667;SDS011;58242;51.250;-1.118;2023-02-03T15:15:54;14.63;;;12.15;;
70667;SDS011;58242;51.250;-1.118;2023-02-03T15:18:27;8.25;;;7.45;;
70667;SDS011;58242;51.250;-1.118;2023-02-03T15:20:55;7.30;;;6.45;;
70667;SDS011;58242;51.250;-1.118;2023-02-03T15:23:23;6.80;;;6.18;;
70667;SDS011;58242;51.250;-1.118;2023-02-03T15:26:07;6.57;;;5.60;;
70667;SDS011;58242;51.250;-1.118;2023-02-03T15:28:36;5.90;;;4.80;;
70667;SDS011;58242;51.250;-1.118;2023-02-03T15:31:03;4.68;;;4.03;;
70667;SDS011;58242;51.250;-1.118;2023-02-03T15:33:33;4.35;;;3.35;;
70667;SDS011;58242;51.250;-1.118;2023-02-03T15:36:02;4.90;;;4.43;;
70667;SDS011;58242;51.250;-1.118;2023-02-03T15:38:37;4.07;;;3.78;;
70667;SDS011;58242;51.250;-1.118;2023-02-03T15:41:06;3.40;;;3.08;;
70667;SDS011;58242;51.250;-1.118;2023-02-03T15:43:41;3.80;;;3.33;;
70667;SDS011;58242;51.250;-1.118;2023-02-03T15:46:26;4.57;;;3.50;;
70667;SDS011;58242;51.250;-1.118;2023-02-03T15:49:10;3.30;;;3.10;;
70667;SDS011;58242;51.250;-1.118;2023-02-03T15:51:43;4.30;;;4.00;;
70667;SDS011;58242;51.250;-1.118;2023-02-03T15:54:14;3.65;;;3.35;;
70667;SDS011;58242;51.250;-1.118;2023-02-03T15:56:59;3.28;;;2.90;;
70667;SDS011;58242;51.250;-1.118;2023-02-03T15:59:33;3.50;;;3.20;;
70667;SDS011;58242;51.250;-1.118;2023-02-03T16:02:04;3.47;;;3.08;;
70667;SDS011;58242;51.250;-1.118;2023-02-03T16:04:36;6.68;;;4.65;;
70667;SDS011;58242;51.250;-1.118;2023-02-03T16:07:01;4.13;;;3.72;;
70667;SDS011;58242;51.250;-1.118;2023-02-03T16:09:31;4.70;;;4.00;;
70667;SDS011;58242;51.250;-1.118;2023-02-03T16:14:35;4.57;;;3.45;;
70667;SDS011;58242;51.250;-1.118;2023-02-03T16:17:01;4.80;;;3.47;;
70667;SDS011;58242;51.250;-1.118;2023-02-03T16:19:27;9.20;;;5.18;;
70667;SDS011;58242;51.250;-1.118;2023-02-03T16:21:54;10.80;;;6.15;;
70667;SDS011;58242;51.250;-1.118;2023-02-03T16:29:54;6.15;;;4.85;;
70667;SDS011;58242;51.250;-1.118;2023-02-03T16:35:53;6.00;;;4.80;;
70667;SDS011;58242;51.250;-1.118;2023-02-03T16:38:42;3.80;;;3.50;;
70667;SDS011;58242;51.250;-1.118;2023-02-03T16:41:27;4.10;;;3.90;;
70667;SDS011;58242;51.250;-1.118;2023-02-03T16:44:11;3.88;;;3.58;;
70667;SDS011;58242;51.250;-1.118;2023-02-03T16:46:55;2.78;;;2.67;;
70667;SDS011;58242;51.250;-1.118;2023-02-03T16:49:39;3.40;;;3.20;;
70667;SDS011;58242;51.250;-1.118;2023-02-03T16:52:23;3.30;;;3.00;;
70667;SDS011;58242;51.250;-1.118;2023-02-03T16:54:48;3.00;;;2.70;;
70667;SDS011;58242;51.250;-1.118;2023-02-03T16:57:13;2.35;;;2.25;;
70667;SDS011;58242;51.250;-1.118;2023-02-03T16:59:39;2.65;;;2.47;;
70667;SDS011;58242;51.250;-1.118;2023-02-03T17:02:04;3.70;;;3.15;;
70667;SDS011;58242;51.250;-1.118;2023-02-03T17:04:29;3.72;;;3.40;;
70667;SDS011;58242;51.250;-1.118;2023-02-03T17:06:55;3.75;;;3.45;;
70667;SDS011;58242;51.250;-1.118;2023-02-03T17:09:20;3.60;;;3.40;;
70667;SDS011;58242;51.250;-1.118;2023-02-03T17:11:47;3.25;;;2.97;;
70667;SDS011;58242;51.250;-1.118;2023-02-03T17:14:13;4.22;;;3.47;;
70667;SDS011;58242;51.250;-1.118;2023-02-03T17:16:38;3.38;;;2.45;;
70667;SDS011;58242;51.250;-1.118;2023-02-03T17:19:04;2.90;;;2.70;;
70667;SDS011;58242;51.250;-1.118;2023-02-03T17:21:29;2.40;;;2.30;;
70667;SDS011;58242;51.250;-1.118;2023-02-03T17:23:56;2.45;;;2.35;;
70667;SDS011;58242;51.250;-1.118;2023-02-03T17:26:23;2.40;;;2.28;;
70667;SDS011;58242;51.250;-1.118;2023-02-03T17:28:48;2.15;;;2.05;;
70667;SDS011;58242;51.250;-1.118;2023-02-03T17:31:14;2.50;;;2.40;;
70667;SDS011;58242;51.250;-1.118;2023-02-03T17:33:41;2.42;;;2.30;;